Patuxent — WDB3971 — position and weather

sailwx.info

Track history (hours):
 
Tides and Currents Weather Stations Pressure Air Temp Water Temp Dewpoint Dewpoint Depression Visibility Wind Speed Wind Dir Waves Ship Positions

Patuxent

Owner: ASSOCIATION OF MARYLAND PILOTS, BALTIMORE, MD. More information available from US FCC via Universal Licensing System and Coast Guard Vessel Documentation Center.

Last reported at 2017-Oct-22 22:24 UTC. Time now 2017-Oct-22 23:05 UTC.
Position N 36°54' W 076°05'.

Length 17 m; draft 5 m.

Type: Pilot. MMSI: 366893270.

Date/timePositionNaut miles runAvg speedWind from/ knotsBaromVisibWave heightAir tempDewpointWater temp
2017-Oct-22 22:24N 36°54' W 076°05'0 0.0
2017-Oct-22 22:00N 36°54' W 076°05'0 0.0
2017-Oct-22 21:30N 36°54' W 076°05'0 0.0
2017-Oct-22 21:00N 36°54' W 076°05'0 0.0
2017-Oct-22 20:30N 36°54' W 076°05'0 0.0
2017-Oct-22 20:00N 36°54' W 076°05'0 0.0
2017-Oct-22 19:30N 36°54' W 076°05'0 0.0
2017-Oct-22 19:00N 36°54' W 076°05'0 0.0
2017-Oct-22 18:30N 36°54' W 076°05'0 0.0
2017-Oct-22 18:00N 36°54' W 076°05'1 2.2
2017-Oct-22 17:30N 36°55' W 076°05'4 7.5
2017-Oct-22 16:58N 36°57' W 076°00'5 2.2
2017-Oct-22 14:51N 36°54' W 076°05'615.4
2017-Oct-22 14:28N 36°58' W 075°59'610.9
2017-Oct-22 13:57N 36°54' W 076°05'0 0.0
2017-Oct-22 13:29N 36°54' W 076°05'2 4.5
2017-Oct-22 13:00N 36°56' W 076°03'2 4.2
2017-Oct-22 12:30N 36°56' W 076°01'4 6.8
2017-Oct-22 11:55N 36°54' W 076°05'614.1
2017-Oct-22 11:30N 36°58' W 075°59'6 5.0
2017-Oct-22 10:21N 36°54' W 076°05'1 1.1
2017-Oct-22 09:14N 36°56' W 076°05'1 4.2
2017-Oct-22 08:56N 36°54' W 076°05'0 0.0
2017-Oct-22 08:29N 36°54' W 076°05'0 0.0
2017-Oct-22 07:59N 36°54' W 076°05'2 3.6
2017-Oct-22 07:30N 36°56' W 076°04'3 4.4
2017-Oct-22 06:55N 36°56' W 076°01'4 6.1
2017-Oct-22 06:15N 36°54' W 076°05'415.2
2017-Oct-22 06:00N 36°56' W 076°01'5 9.0
2017-Oct-22 05:28N 36°55' W 075°55'8 7.4
2017-Oct-22 04:24N 36°54' W 076°05'7 4.6
2017-Oct-22 02:49N 36°56' W 075°57'617.8
2017-Oct-22 02:28N 36°56' W 076°04'1 0.7
2017-Oct-22 00:27N 36°54' W 076°05'814.7
2017-Oct-21 23:54N 36°55' W 075°55'8 5.4
2017-Oct-21 22:22N 36°54' W 076°05'0 0.0
2017-Oct-21 22:00N 36°54' W 076°05'0 0.0
2017-Oct-21 21:30N 36°54' W 076°05'0 0.0
2017-Oct-21 21:00N 36°54' W 076°05'0 0.0
2017-Oct-21 20:30N 36°54' W 076°05'0 0.0
2017-Oct-21 20:00N 36°54' W 076°05'0 0.0
2017-Oct-21 19:30N 36°54' W 076°05'0 0.0
2017-Oct-21 19:00N 36°54' W 076°05'0 0.0
2017-Oct-21 18:30N 36°54' W 076°05'0 0.0
2017-Oct-21 18:00N 36°54' W 076°05'0 0.0
2017-Oct-21 17:29N 36°54' W 076°05'0 0.0
2017-Oct-21 15:02N 36°54' W 076°05'0 0.6
2017-Oct-21 15:00N 36°54' W 076°05'1 1.5
2017-Oct-21 14:01N 36°56' W 076°04'1 2.8
2017-Oct-21 13:29N 36°54' W 076°05'0 0.0
2017-Oct-21 13:00N 36°54' W 076°05'0 0.0
2017-Oct-21 12:30N 36°54' W 076°05'0 0.4
2017-Oct-21 12:00N 36°54' W 076°06'3 5.1
2017-Oct-21 11:30N 36°56' W 076°03'2 0.9
2017-Oct-21 08:49N 36°54' W 076°05'0 0.0
2017-Oct-21 08:27N 36°54' W 076°05'0 0.0
2017-Oct-21 07:55N 36°54' W 076°05'0 0.0
2017-Oct-21 07:30N 36°54' W 076°05'0 0.0
2017-Oct-21 03:45N 36°54' W 076°05'414.8
2017-Oct-21 03:30N 36°57' W 076°01'3 5.5
2017-Oct-21 02:58N 36°55' W 076°05'1 0.5
2017-Oct-21 00:47N 36°54' W 076°05'0 0.0
2017-Oct-21 00:30N 36°54' W 076°05'2 4.2
2017-Oct-21 00:01N 36°56' W 076°03'1 2.2
2017-Oct-20 23:24N 36°56' W 076°02'3 8.0
2017-Oct-20 22:59N 36°54' W 076°05'0 0.0
2017-Oct-20 22:27N 36°54' W 076°05'0 0.0
2017-Oct-20 22:00N 36°54' W 076°05'0 0.0
2017-Oct-20 21:30N 36°54' W 076°05'0 0.0
2017-Oct-20 21:01N 36°54' W 076°05'0 0.0
2017-Oct-20 20:30N 36°54' W 076°05'0 0.0
2017-Oct-20 20:01N 36°54' W 076°05'0 0.0
2017-Oct-20 19:30N 36°54' W 076°05'0 0.0
2017-Oct-20 19:00N 36°54' W 076°05'0 0.0
2017-Oct-20 18:30N 36°54' W 076°05'0 0.0
2017-Oct-20 18:01N 36°54' W 076°05'0 0.3
2017-Oct-20 17:31N 36°54' W 076°06'5 9.7
2017-Oct-20 16:59N 36°58' W 076°00'5 1.6
2017-Oct-20 13:52N 36°54' W 076°05'0 0.0
2017-Oct-20 13:24N 36°54' W 076°05'0 0.0
2017-Oct-20 12:58N 36°54' W 076°05'0 0.0
2017-Oct-20 12:30N 36°54' W 076°05'0 0.0
2017-Oct-20 12:00N 36°54' W 076°05'0 0.0
2017-Oct-20 11:30N 36°54' W 076°05'0 0.0
2017-Oct-20 09:56N 36°54' W 076°05'612.3
2017-Oct-20 09:28N 36°58' W 075°60'6 2.4
2017-Oct-20 07:03N 36°54' W 076°05'0 4.5
2017-Oct-20 07:00N 36°55' W 076°06'6 8.5
2017-Oct-20 06:20N 36°58' W 075°60'2 5.2
2017-Oct-20 05:55N 36°56' W 075°58'2 5.7
2017-Oct-20 05:30N 36°56' W 076°01'3 5.8
2017-Oct-20 05:00N 36°56' W 076°04'1 1.2
2017-Oct-20 04:30N 36°56' W 076°05'1 0.5
2017-Oct-20 02:08N 36°54' W 076°05'215.6
2017-Oct-20 01:59N 36°57' W 076°05'2 1.9
2017-Oct-20 00:47N 36°54' W 076°05'2 3.0
2017-Oct-20 00:08N 36°56' W 076°04'212.5
2017-Oct-19 23:59N 36°54' W 076°05'0 0.2
2017-Oct-19 23:15N 36°54' W 076°05'415.7
2017-Oct-19 23:00N 36°57' W 076°02'5 7.8
2017-Oct-19 22:25N 36°56' W 075°56'818.9
2017-Oct-19 22:00N 36°54' W 076°05'0 0.2
2017-Oct-19 21:27N 36°54' W 076°05'0 0.0
2017-Oct-19 20:58N 36°54' W 076°05'0 0.0
2017-Oct-19 20:18N 36°54' W 076°05'0 0.0
2017-Oct-19 19:59N 36°54' W 076°05'0 0.0
2017-Oct-19 14:34N 36°54' W 076°05'0 0.0
2017-Oct-19 14:27N 36°54' W 076°05'0 0.0
2017-Oct-19 13:52N 36°54' W 076°05'0 0.0
2017-Oct-18 20:16N 36°54' W 076°05'0 0.0
2017-Oct-18 16:10N 36°54' W 076°05'0 0.0
2017-Oct-18 15:57N 36°54' W 076°05'0 0.0
2017-Oct-17 22:16N 36°54' W 076°05'0 0.0
2017-Oct-17 21:59N 36°54' W 076°05'0 0.0
2017-Oct-17 13:12N 36°54' W 076°05'0 0.0
2017-Oct-17 12:53N 36°54' W 076°05'0 0.0
2017-Oct-17 01:45N 36°54' W 076°05'515.1
2017-Oct-17 01:27N 36°57' W 076°00'5 4.3
2017-Oct-17 00:19N 36°54' W 076°05'0 0.3
2017-Oct-16 23:58N 36°54' W 076°05'0 0.0
2017-Oct-16 23:30N 36°54' W 076°05'0 0.0
2017-Oct-16 22:49N 36°54' W 076°05'0 0.0
2017-Oct-16 22:30N 36°54' W 076°05'0 0.0
2017-Oct-16 22:00N 36°54' W 076°05'0 0.0
2017-Oct-16 21:30N 36°54' W 076°05'0 0.0
2017-Oct-16 21:00N 36°54' W 076°05'0 0.0
2017-Oct-16 20:30N 36°54' W 076°05'0 0.0
2017-Oct-16 20:00N 36°54' W 076°05'0 0.0
2017-Oct-16 19:30N 36°54' W 076°05'0 0.0
2017-Oct-16 19:00N 36°54' W 076°05'0 0.0
2017-Oct-16 18:30N 36°54' W 076°05'0 0.0
2017-Oct-16 17:59N 36°54' W 076°05'0 0.0
2017-Oct-16 17:30N 36°54' W 076°05'0 0.0
2017-Oct-16 17:00N 36°54' W 076°05'0 0.0
2017-Oct-16 16:30N 36°54' W 076°05'3 6.3
2017-Oct-16 16:00N 36°56' W 076°02'1 2.3
2017-Oct-16 15:28N 36°56' W 076°01'4 8.4
2017-Oct-16 14:59N 36°54' W 076°05'0 0.0
2017-Oct-16 13:56N 36°54' W 076°05'0 0.0
2017-Oct-16 13:28N 36°54' W 076°05'612.4
2017-Oct-16 13:00N 36°58' W 075°60'611.6
2017-Oct-16 12:30N 36°54' W 076°05'0 0.0
2017-Oct-16 11:40N 36°54' W 076°05'0 0.0
2017-Oct-15 22:38N 36°54' W 076°05'0 0.0
2017-Oct-15 22:30N 36°54' W 076°05'610.9
2017-Oct-15 21:56N 36°56' W 075°58'4 8.2
2017-Oct-15 21:30N 36°56' W 076°02'3 6.1
2017-Oct-15 21:01N 36°54' W 076°05'0 0.0
2017-Oct-15 20:30N 36°54' W 076°05'0 0.0
2017-Oct-15 20:00N 36°54' W 076°05'0 0.0
2017-Oct-15 19:29N 36°54' W 076°05'0 0.0
2017-Oct-15 18:59N 36°54' W 076°05'0 0.0
2017-Oct-15 18:29N 36°54' W 076°05'0 0.0
2017-Oct-15 17:58N 36°54' W 076°05'0 0.0
2017-Oct-15 17:22N 36°54' W 076°05'0 0.0
2017-Oct-15 16:54N 36°54' W 076°05'0 0.0
2017-Oct-15 16:23N 36°54' W 076°05'0 0.0
2017-Oct-15 15:03N 36°54' W 076°05'0 0.0
2017-Oct-15 14:58N 36°54' W 076°05'0 0.0
2017-Oct-15 12:48N 36°54' W 076°05'616.9
2017-Oct-15 12:27N 36°57' W 075°59'613.0
2017-Oct-15 12:00N 36°55' W 076°05'0 0.4
2017-Oct-15 11:01N 36°54' W 076°06'0 9.3
2017-Oct-15 11:00N 36°55' W 076°06'0 0.2
2017-Oct-15 09:07N 36°54' W 076°05'213.6
2017-Oct-15 08:58N 36°56' W 076°04'2 1.1
2017-Oct-15 07:14N 36°54' W 076°05'0 0.0
2017-Oct-15 06:50N 36°54' W 076°05'2 3.7
2017-Oct-15 06:11N 36°56' W 076°03'2 1.9
2017-Oct-15 04:54N 36°54' W 076°05'2 1.6
2017-Oct-15 03:28N 36°56' W 076°03'2 1.0
2017-Oct-15 01:08N 36°54' W 076°05'211.6
2017-Oct-15 01:00N 36°56' W 076°04'2 1.0
2017-Oct-14 23:31N 36°54' W 076°05'111.3
2017-Oct-14 23:25N 36°55' W 076°05'819.2
2017-Oct-14 23:00N 36°55' W 075°55'814.4
2017-Oct-14 22:26N 36°54' W 076°05'0 0.0
2017-Oct-14 21:55N 36°54' W 076°05'0 0.0
2017-Oct-14 21:30N 36°54' W 076°05'0 0.0
2017-Oct-14 20:58N 36°54' W 076°05'0 0.0
2017-Oct-14 19:01N 36°54' W 076°05'0 0.0
2017-Oct-14 18:54N 36°54' W 076°05'0 0.0
2017-Oct-14 18:29N 36°54' W 076°05'0 0.0
2017-Oct-14 17:55N 36°54' W 076°05'0 0.0
2017-Oct-14 17:14N 36°54' W 076°05'0 0.0
2017-Oct-14 17:00N 36°54' W 076°05'0 0.0
2017-Oct-14 14:56N 36°54' W 076°05'5 9.6
2017-Oct-14 14:28N 36°57' W 076°01'5 6.9
2017-Oct-14 13:48N 36°54' W 076°05'0 0.2
2017-Oct-14 13:21N 36°54' W 076°05'614.0
2017-Oct-14 12:56N 36°58' W 075°59'6 9.1
2017-Oct-14 12:17N 36°54' W 076°05'0 0.0
2017-Oct-14 12:00N 36°54' W 076°05'0 0.0
2017-Oct-14 11:28N 36°54' W 076°05'0 0.0
2017-Oct-14 07:56N 36°54' W 076°05'511.2
2017-Oct-14 07:28N 36°57' W 076°00'5 1.3
2017-Oct-14 03:26N 36°54' W 076°05'0 0.0
2017-Oct-13 22:28N 36°54' W 076°05'0 0.0
2017-Oct-13 22:00N 36°54' W 076°05'0 0.0
2017-Oct-13 21:30N 36°54' W 076°05'0 0.0
2017-Oct-13 21:00N 36°54' W 076°05'0 0.0
2017-Oct-13 20:30N 36°54' W 076°05'0 0.0
2017-Oct-13 19:57N 36°54' W 076°05'0 0.0
2017-Oct-13 19:29N 36°54' W 076°05'0 0.0
2017-Oct-13 17:38N 36°54' W 076°05'0 0.0
2017-Oct-13 17:09N 36°54' W 076°05'0 0.0
2017-Oct-13 16:51N 36°54' W 076°05'0 0.0
2017-Oct-13 15:58N 36°54' W 076°05'613.1
2017-Oct-13 15:30N 36°59' W 076°00'611.8
2017-Oct-13 14:59N 36°54' W 076°05'0 0.2
2017-Oct-13 14:20N 36°54' W 076°05'0 0.0
2017-Oct-13 12:27N 36°54' W 076°05'714.1
2017-Oct-13 11:58N 36°56' W 075°57'3 6.3
2017-Oct-13 11:28N 36°56' W 076°01'4 0.9
2017-Oct-13 06:52N 36°54' W 076°05'3 3.6
2017-Oct-13 05:57N 36°57' W 076°02'3 1.1
2017-Oct-13 02:55N 36°54' W 076°05'0 0.1
2017-Oct-12 23:40N 36°54' W 076°06'318.2
2017-Oct-12 23:30N 36°57' W 076°03'1 1.1
2017-Oct-12 22:26N 36°56' W 076°04'  
Track history (hours):
 
Tides and Currents Weather Stations Pressure Air Temp Water Temp Dewpoint Dewpoint Depression Visibility Wind Speed Wind Dir Waves Ship Positions

Patuxent

Owner: ASSOCIATION OF MARYLAND PILOTS, BALTIMORE, MD. More information available from US FCC via Universal Licensing System and Coast Guard Vessel Documentation Center.

Last reported at 2017-Oct-22 22:24 UTC. Time now 2017-Oct-22 23:05 UTC.
Position N 36°54' W 076°05'.

Length 17 m; draft 5 m.

Type: Pilot. MMSI: 366893270.

Date/timePositionNaut miles runAvg speedWind from/ knotsBaromVisibWave heightAir tempDewpointWater temp
2017-Oct-22 22:24N 36°54' W 076°05'0 0.0
2017-Oct-22 22:00N 36°54' W 076°05'0 0.0
2017-Oct-22 21:30N 36°54' W 076°05'0 0.0
2017-Oct-22 21:00N 36°54' W 076°05'0 0.0
2017-Oct-22 20:30N 36°54' W 076°05'0 0.0
2017-Oct-22 20:00N 36°54' W 076°05'0 0.0
2017-Oct-22 19:30N 36°54' W 076°05'0 0.0
2017-Oct-22 19:00N 36°54' W 076°05'0 0.0
2017-Oct-22 18:30N 36°54' W 076°05'0 0.0
2017-Oct-22 18:00N 36°54' W 076°05'1 2.2
2017-Oct-22 17:30N 36°55' W 076°05'4 7.5
2017-Oct-22 16:58N 36°57' W 076°00'5 2.2
2017-Oct-22 14:51N 36°54' W 076°05'615.4
2017-Oct-22 14:28N 36°58' W 075°59'610.9
2017-Oct-22 13:57N 36°54' W 076°05'0 0.0
2017-Oct-22 13:29N 36°54' W 076°05'2 4.5
2017-Oct-22 13:00N 36°56' W 076°03'2 4.2
2017-Oct-22 12:30N 36°56' W 076°01'4 6.8
2017-Oct-22 11:55N 36°54' W 076°05'614.1
2017-Oct-22 11:30N 36°58' W 075°59'6 5.0
2017-Oct-22 10:21N 36°54' W 076°05'1 1.1
2017-Oct-22 09:14N 36°56' W 076°05'1 4.2
2017-Oct-22 08:56N 36°54' W 076°05'0 0.0
2017-Oct-22 08:29N 36°54' W 076°05'0 0.0
2017-Oct-22 07:59N 36°54' W 076°05'2 3.6
2017-Oct-22 07:30N 36°56' W 076°04'3 4.4
2017-Oct-22 06:55N 36°56' W 076°01'4 6.1
2017-Oct-22 06:15N 36°54' W 076°05'415.2
2017-Oct-22 06:00N 36°56' W 076°01'5 9.0
2017-Oct-22 05:28N 36°55' W 075°55'8 7.4
2017-Oct-22 04:24N 36°54' W 076°05'7 4.6
2017-Oct-22 02:49N 36°56' W 075°57'617.8
2017-Oct-22 02:28N 36°56' W 076°04'1 0.7
2017-Oct-22 00:27N 36°54' W 076°05'814.7
2017-Oct-21 23:54N 36°55' W 075°55'8 5.4
2017-Oct-21 22:22N 36°54' W 076°05'0 0.0
2017-Oct-21 22:00N 36°54' W 076°05'0 0.0
2017-Oct-21 21:30N 36°54' W 076°05'0 0.0
2017-Oct-21 21:00N 36°54' W 076°05'0 0.0
2017-Oct-21 20:30N 36°54' W 076°05'0 0.0
2017-Oct-21 20:00N 36°54' W 076°05'0 0.0
2017-Oct-21 19:30N 36°54' W 076°05'0 0.0
2017-Oct-21 19:00N 36°54' W 076°05'0 0.0
2017-Oct-21 18:30N 36°54' W 076°05'0 0.0
2017-Oct-21 18:00N 36°54' W 076°05'0 0.0
2017-Oct-21 17:29N 36°54' W 076°05'0 0.0
2017-Oct-21 15:02N 36°54' W 076°05'0 0.6
2017-Oct-21 15:00N 36°54' W 076°05'1 1.5
2017-Oct-21 14:01N 36°56' W 076°04'1 2.8
2017-Oct-21 13:29N 36°54' W 076°05'0 0.0
2017-Oct-21 13:00N 36°54' W 076°05'0 0.0
2017-Oct-21 12:30N 36°54' W 076°05'0 0.4
2017-Oct-21 12:00N 36°54' W 076°06'3 5.1
2017-Oct-21 11:30N 36°56' W 076°03'2 0.9
2017-Oct-21 08:49N 36°54' W 076°05'0 0.0
2017-Oct-21 08:27N 36°54' W 076°05'0 0.0
2017-Oct-21 07:55N 36°54' W 076°05'0 0.0
2017-Oct-21 07:30N 36°54' W 076°05'0 0.0
2017-Oct-21 03:45N 36°54' W 076°05'414.8
2017-Oct-21 03:30N 36°57' W 076°01'3 5.5
2017-Oct-21 02:58N 36°55' W 076°05'1 0.5
2017-Oct-21 00:47N 36°54' W 076°05'0 0.0
2017-Oct-21 00:30N 36°54' W 076°05'2 4.2
2017-Oct-21 00:01N 36°56' W 076°03'1 2.2
2017-Oct-20 23:24N 36°56' W 076°02'3 8.0
2017-Oct-20 22:59N 36°54' W 076°05'0 0.0
2017-Oct-20 22:27N 36°54' W 076°05'0 0.0
2017-Oct-20 22:00N 36°54' W 076°05'0 0.0
2017-Oct-20 21:30N 36°54' W 076°05'0 0.0
2017-Oct-20 21:01N 36°54' W 076°05'0 0.0
2017-Oct-20 20:30N 36°54' W 076°05'0 0.0
2017-Oct-20 20:01N 36°54' W 076°05'0 0.0
2017-Oct-20 19:30N 36°54' W 076°05'0 0.0
2017-Oct-20 19:00N 36°54' W 076°05'0 0.0
2017-Oct-20 18:30N 36°54' W 076°05'0 0.0
2017-Oct-20 18:01N 36°54' W 076°05'0 0.3
2017-Oct-20 17:31N 36°54' W 076°06'5 9.7
2017-Oct-20 16:59N 36°58' W 076°00'5 1.6
2017-Oct-20 13:52N 36°54' W 076°05'0 0.0
2017-Oct-20 13:24N 36°54' W 076°05'0 0.0
2017-Oct-20 12:58N 36°54' W 076°05'0 0.0
2017-Oct-20 12:30N 36°54' W 076°05'0 0.0
2017-Oct-20 12:00N 36°54' W 076°05'0 0.0
2017-Oct-20 11:30N 36°54' W 076°05'0 0.0
2017-Oct-20 09:56N 36°54' W 076°05'612.3
2017-Oct-20 09:28N 36°58' W 075°60'6 2.4
2017-Oct-20 07:03N 36°54' W 076°05'0 4.5
2017-Oct-20 07:00N 36°55' W 076°06'6 8.5
2017-Oct-20 06:20N 36°58' W 075°60'2 5.2
2017-Oct-20 05:55N 36°56' W 075°58'2 5.7
2017-Oct-20 05:30N 36°56' W 076°01'3 5.8
2017-Oct-20 05:00N 36°56' W 076°04'1 1.2
2017-Oct-20 04:30N 36°56' W 076°05'1 0.5
2017-Oct-20 02:08N 36°54' W 076°05'215.6
2017-Oct-20 01:59N 36°57' W 076°05'2 1.9
2017-Oct-20 00:47N 36°54' W 076°05'2 3.0
2017-Oct-20 00:08N 36°56' W 076°04'212.5
2017-Oct-19 23:59N 36°54' W 076°05'0 0.2
2017-Oct-19 23:15N 36°54' W 076°05'415.7
2017-Oct-19 23:00N 36°57' W 076°02'5 7.8
2017-Oct-19 22:25N 36°56' W 075°56'818.9
2017-Oct-19 22:00N 36°54' W 076°05'0 0.2
2017-Oct-19 21:27N 36°54' W 076°05'0 0.0
2017-Oct-19 20:58N 36°54' W 076°05'0 0.0
2017-Oct-19 20:18N 36°54' W 076°05'0 0.0
2017-Oct-19 19:59N 36°54' W 076°05'0 0.0
2017-Oct-19 14:34N 36°54' W 076°05'0 0.0
2017-Oct-19 14:27N 36°54' W 076°05'0 0.0
2017-Oct-19 13:52N 36°54' W 076°05'0 0.0
2017-Oct-18 20:16N 36°54' W 076°05'0 0.0
2017-Oct-18 16:10N 36°54' W 076°05'0 0.0
2017-Oct-18 15:57N 36°54' W 076°05'0 0.0
2017-Oct-17 22:16N 36°54' W 076°05'0 0.0
2017-Oct-17 21:59N 36°54' W 076°05'0 0.0
2017-Oct-17 13:12N 36°54' W 076°05'0 0.0
2017-Oct-17 12:53N 36°54' W 076°05'0 0.0
2017-Oct-17 01:45N 36°54' W 076°05'515.1
2017-Oct-17 01:27N 36°57' W 076°00'5 4.3
2017-Oct-17 00:19N 36°54' W 076°05'0 0.3
2017-Oct-16 23:58N 36°54' W 076°05'0 0.0
2017-Oct-16 23:30N 36°54' W 076°05'0 0.0
2017-Oct-16 22:49N 36°54' W 076°05'0 0.0
2017-Oct-16 22:30N 36°54' W 076°05'0 0.0
2017-Oct-16 22:00N 36°54' W 076°05'0 0.0
2017-Oct-16 21:30N 36°54' W 076°05'0 0.0
2017-Oct-16 21:00N 36°54' W 076°05'0 0.0
2017-Oct-16 20:30N 36°54' W 076°05'0 0.0
2017-Oct-16 20:00N 36°54' W 076°05'0 0.0
2017-Oct-16 19:30N 36°54' W 076°05'0 0.0
2017-Oct-16 19:00N 36°54' W 076°05'0 0.0
2017-Oct-16 18:30N 36°54' W 076°05'0 0.0
2017-Oct-16 17:59N 36°54' W 076°05'0 0.0
2017-Oct-16 17:30N 36°54' W 076°05'0 0.0
2017-Oct-16 17:00N 36°54' W 076°05'0 0.0
2017-Oct-16 16:30N 36°54' W 076°05'3 6.3
2017-Oct-16 16:00N 36°56' W 076°02'1 2.3
2017-Oct-16 15:28N 36°56' W 076°01'4 8.4
2017-Oct-16 14:59N 36°54' W 076°05'0 0.0
2017-Oct-16 13:56N 36°54' W 076°05'0 0.0
2017-Oct-16 13:28N 36°54' W 076°05'612.4
2017-Oct-16 13:00N 36°58' W 075°60'611.6
2017-Oct-16 12:30N 36°54' W 076°05'0 0.0
2017-Oct-16 11:40N 36°54' W 076°05'0 0.0
2017-Oct-15 22:38N 36°54' W 076°05'0 0.0
2017-Oct-15 22:30N 36°54' W 076°05'610.9
2017-Oct-15 21:56N 36°56' W 075°58'4 8.2
2017-Oct-15 21:30N 36°56' W 076°02'3 6.1
2017-Oct-15 21:01N 36°54' W 076°05'0 0.0
2017-Oct-15 20:30N 36°54' W 076°05'0 0.0
2017-Oct-15 20:00N 36°54' W 076°05'0 0.0
2017-Oct-15 19:29N 36°54' W 076°05'0 0.0
2017-Oct-15 18:59N 36°54' W 076°05'0 0.0
2017-Oct-15 18:29N 36°54' W 076°05'0 0.0
2017-Oct-15 17:58N 36°54' W 076°05'0 0.0
2017-Oct-15 17:22N 36°54' W 076°05'0 0.0
2017-Oct-15 16:54N 36°54' W 076°05'0 0.0
2017-Oct-15 16:23N 36°54' W 076°05'0 0.0
2017-Oct-15 15:03N 36°54' W 076°05'0 0.0
2017-Oct-15 14:58N 36°54' W 076°05'0 0.0
2017-Oct-15 12:48N 36°54' W 076°05'616.9
2017-Oct-15 12:27N 36°57' W 075°59'613.0
2017-Oct-15 12:00N 36°55' W 076°05'0 0.4
2017-Oct-15 11:01N 36°54' W 076°06'0 9.3
2017-Oct-15 11:00N 36°55' W 076°06'0 0.2
2017-Oct-15 09:07N 36°54' W 076°05'213.6
2017-Oct-15 08:58N 36°56' W 076°04'2 1.1
2017-Oct-15 07:14N 36°54' W 076°05'0 0.0
2017-Oct-15 06:50N 36°54' W 076°05'2 3.7
2017-Oct-15 06:11N 36°56' W 076°03'2 1.9
2017-Oct-15 04:54N 36°54' W 076°05'2 1.6
2017-Oct-15 03:28N 36°56' W 076°03'2 1.0
2017-Oct-15 01:08N 36°54' W 076°05'211.6
2017-Oct-15 01:00N 36°56' W 076°04'2 1.0
2017-Oct-14 23:31N 36°54' W 076°05'111.3
2017-Oct-14 23:25N 36°55' W 076°05'819.2
2017-Oct-14 23:00N 36°55' W 075°55'814.4
2017-Oct-14 22:26N 36°54' W 076°05'0 0.0
2017-Oct-14 21:55N 36°54' W 076°05'0 0.0
2017-Oct-14 21:30N 36°54' W 076°05'0 0.0
2017-Oct-14 20:58N 36°54' W 076°05'0 0.0
2017-Oct-14 19:01N 36°54' W 076°05'0 0.0
2017-Oct-14 18:54N 36°54' W 076°05'0 0.0
2017-Oct-14 18:29N 36°54' W 076°05'0 0.0
2017-Oct-14 17:55N 36°54' W 076°05'0 0.0
2017-Oct-14 17:14N 36°54' W 076°05'0 0.0
2017-Oct-14 17:00N 36°54' W 076°05'0 0.0
2017-Oct-14 14:56N 36°54' W 076°05'5 9.6
2017-Oct-14 14:28N 36°57' W 076°01'5 6.9
2017-Oct-14 13:48N 36°54' W 076°05'0 0.2
2017-Oct-14 13:21N 36°54' W 076°05'614.0
2017-Oct-14 12:56N 36°58' W 075°59'6 9.1
2017-Oct-14 12:17N 36°54' W 076°05'0 0.0
2017-Oct-14 12:00N 36°54' W 076°05'0 0.0
2017-Oct-14 11:28N 36°54' W 076°05'0 0.0
2017-Oct-14 07:56N 36°54' W 076°05'511.2
2017-Oct-14 07:28N 36°57' W 076°00'5 1.3
2017-Oct-14 03:26N 36°54' W 076°05'0 0.0
2017-Oct-13 22:28N 36°54' W 076°05'0 0.0
2017-Oct-13 22:00N 36°54' W 076°05'0 0.0
2017-Oct-13 21:30N 36°54' W 076°05'0 0.0
2017-Oct-13 21:00N 36°54' W 076°05'0 0.0
2017-Oct-13 20:30N 36°54' W 076°05'0 0.0
2017-Oct-13 19:57N 36°54' W 076°05'0 0.0
2017-Oct-13 19:29N 36°54' W 076°05'0 0.0
2017-Oct-13 17:38N 36°54' W 076°05'0 0.0
2017-Oct-13 17:09N 36°54' W 076°05'0 0.0
2017-Oct-13 16:51N 36°54' W 076°05'0 0.0
2017-Oct-13 15:58N 36°54' W 076°05'613.1
2017-Oct-13 15:30N 36°59' W 076°00'611.8
2017-Oct-13 14:59N 36°54' W 076°05'0 0.2
2017-Oct-13 14:20N 36°54' W 076°05'0 0.0
2017-Oct-13 12:27N 36°54' W 076°05'714.1
2017-Oct-13 11:58N 36°56' W 075°57'3 6.3
2017-Oct-13 11:28N 36°56' W 076°01'4 0.9
2017-Oct-13 06:52N 36°54' W 076°05'3 3.6
2017-Oct-13 05:57N 36°57' W 076°02'3 1.1
2017-Oct-13 02:55N 36°54' W 076°05'0 0.1
2017-Oct-12 23:40N 36°54' W 076°06'318.2
2017-Oct-12 23:30N 36°57' W 076°03'1 1.1
2017-Oct-12 22:26N 36°56' W 076°04'  

Dump ship's entire track history